Terminal Aerodrome Forecast
Issued by NWS Wakefield, VA

Home | Current Version | Previous Version | Text Only | Print | Product List | Glossary On
Versions: 1 2 3 4 5 6 7 8 9 10 11 12 13 14 15 16 17 18 19 20 21 22 23 24 25 26 27 28 29
000
FTUS41 KAKQ 310544
TAFSBY
TAF
KSBY 310544Z 3106/0106 VRB03KT P6SM -SHRA SCT002 BKN015 OVC050
     FM310700 00000KT 4SM BR BKN002
     FM310900 00000KT 1SM BR OVC002
      TEMPO 3110/3113 1/2SM FG VV002
     FM311300 35003KT 4SM BR SCT004 BKN020
     FM311500 VRB04KT P6SM -SHRA BKN025 BKN100=

USA.gov is the U.S. government's official web portal to all federal, state and local government web resources and services.